sensor_id;sensor_type;location;lat;lon;timestamp;pressure;altitude;pressure_sealevel;temperature;humidity
23016;BME280;11674;52.428;13.584;2023-04-03T00:03:04;102764.28;;;3.49;76.55
23016;BME280;11674;52.428;13.584;2023-04-03T00:08:11;102770.16;;;3.46;76.35
23016;BME280;11674;52.428;13.584;2023-04-03T00:13:18;102768.66;;;3.43;76.56
23016;BME280;11674;52.428;13.584;2023-04-03T00:18:25;102758.91;;;3.41;76.58
23016;BME280;11674;52.428;13.584;2023-04-03T00:23:33;102763.75;;;3.39;76.52
23016;BME280;11674;52.428;13.584;2023-04-03T00:28:40;102765.00;;;3.36;76.77
23016;BME280;11674;52.428;13.584;2023-04-03T00:33:47;102774.47;;;3.34;76.61
23016;BME280;11674;52.428;13.584;2023-04-03T00:38:54;102768.34;;;3.32;76.65
23016;BME280;11674;52.428;13.584;2023-04-03T00:44:22;102765.78;;;3.30;76.60
23016;BME280;11674;52.428;13.584;2023-04-03T00:49:29;102767.88;;;3.28;76.72
23016;BME280;11674;52.428;13.584;2023-04-03T00:54:36;102766.16;;;3.27;76.81
23016;BME280;11674;52.428;13.584;2023-04-03T00:59:50;102760.03;;;3.25;76.62
23016;BME280;11674;52.428;13.584;2023-04-03T01:04:57;102770.34;;;3.23;76.54
23016;BME280;11674;52.428;13.584;2023-04-03T01:10:09;102764.41;;;3.20;76.64
23016;BME280;11674;52.428;13.584;2023-04-03T01:15:27;102778.66;;;3.15;76.48
23016;BME280;11674;52.428;13.584;2023-04-03T01:20:56;102774.81;;;3.10;76.57
23016;BME280;11674;52.428;13.584;2023-04-03T01:26:11;102771.13;;;3.03;76.50
23016;BME280;11674;52.428;13.584;2023-04-03T01:31:23;102779.75;;;3.00;76.44
23016;BME280;11674;52.428;13.584;2023-04-03T01:36:32;102780.50;;;2.94;76.35
23016;BME280;11674;52.428;13.584;2023-04-03T01:41:40;102779.09;;;2.83;76.50
23016;BME280;11674;52.428;13.584;2023-04-03T01:46:56;102795.44;;;2.77;76.35
23016;BME280;11674;52.428;13.584;2023-04-03T01:52:04;102784.41;;;2.70;76.25
23016;BME280;11674;52.428;13.584;2023-04-03T01:57:11;102787.69;;;2.66;76.38
23016;BME280;11674;52.428;13.584;2023-04-03T02:02:18;102791.88;;;2.62;76.21
23016;BME280;11674;52.428;13.584;2023-04-03T02:07:26;102797.88;;;2.57;76.26
23016;BME280;11674;52.428;13.584;2023-04-03T02:12:33;102801.19;;;2.53;76.40
23016;BME280;11674;52.428;13.584;2023-04-03T02:17:40;102789.38;;;2.52;76.42
23016;BME280;11674;52.428;13.584;2023-04-03T02:22:48;102793.00;;;2.53;76.41
23016;BME280;11674;52.428;13.584;2023-04-03T02:27:54;102802.25;;;2.52;76.47
23016;BME280;11674;52.428;13.584;2023-04-03T02:33:01;102806.84;;;2.51;76.25
23016;BME280;11674;52.428;13.584;2023-04-03T02:38:09;102806.84;;;2.51;76.47
23016;BME280;11674;52.428;13.584;2023-04-03T02:43:16;102822.81;;;2.48;76.29
23016;BME280;11674;52.428;13.584;2023-04-03T02:48:23;102833.13;;;2.46;76.47
23016;BME280;11674;52.428;13.584;2023-04-03T02:53:31;102823.56;;;2.42;76.33
23016;BME280;11674;52.428;13.584;2023-04-03T02:58:44;102826.50;;;2.40;76.26
23016;BME280;11674;52.428;13.584;2023-04-03T03:03:52;102831.13;;;2.40;76.17
23016;BME280;11674;52.428;13.584;2023-04-03T03:09:00;102831.97;;;2.40;76.33
23016;BME280;11674;52.428;13.584;2023-04-03T03:14:07;102830.91;;;2.41;76.04
23016;BME280;11674;52.428;13.584;2023-04-03T03:19:13;102841.88;;;2.41;76.13
23016;BME280;11674;52.428;13.584;2023-04-03T03:24:21;102843.97;;;2.39;76.06
23016;BME280;11674;52.428;13.584;2023-04-03T03:29:28;102845.34;;;2.35;76.15
23016;BME280;11674;52.428;13.584;2023-04-03T03:34:35;102845.94;;;2.31;76.07
23016;BME280;11674;52.428;13.584;2023-04-03T03:39:43;102842.88;;;2.26;76.04
23016;BME280;11674;52.428;13.584;2023-04-03T03:44:50;102846.47;;;2.26;76.21
23016;BME280;11674;52.428;13.584;2023-04-03T03:49:58;102859.50;;;2.24;76.16
23016;BME280;11674;52.428;13.584;2023-04-03T03:55:05;102856.09;;;2.22;76.07
23016;BME280;11674;52.428;13.584;2023-04-03T04:00:12;102848.94;;;2.21;76.31
23016;BME280;11674;52.428;13.584;2023-04-03T04:05:26;102850.97;;;2.19;76.06
23016;BME280;11674;52.428;13.584;2023-04-03T04:10:35;102848.81;;;2.15;76.15
23016;BME280;11674;52.428;13.584;2023-04-03T04:15:46;102861.81;;;2.13;76.13
23016;BME280;11674;52.428;13.584;2023-04-03T04:20:53;102852.06;;;2.10;76.32
23016;BME280;11674;52.428;13.584;2023-04-03T04:26:00;102855.69;;;2.11;76.29
23016;BME280;11674;52.428;13.584;2023-04-03T04:31:10;102856.91;;;2.08;76.18
23016;BME280;11674;52.428;13.584;2023-04-03T04:36:18;102861.72;;;2.06;76.16
23016;BME280;11674;52.428;13.584;2023-04-03T04:41:25;102862.06;;;2.03;76.12
23016;BME280;11674;52.428;13.584;2023-04-03T04:46:32;102866.00;;;2.01;76.13
23016;BME280;11674;52.428;13.584;2023-04-03T04:51:41;102880.91;;;1.98;76.36
23016;BME280;11674;52.428;13.584;2023-04-03T04:56:48;102883.00;;;1.96;76.20
23016;BME280;11674;52.428;13.584;2023-04-03T05:01:56;102884.88;;;1.96;76.43
23016;BME280;11674;52.428;13.584;2023-04-03T05:07:03;102892.25;;;1.95;76.50
23016;BME280;11674;52.428;13.584;2023-04-03T05:12:11;102889.50;;;1.95;76.31
23016;BME280;11674;52.428;13.584;2023-04-03T05:17:24;102894.59;;;1.98;76.48
23016;BME280;11674;52.428;13.584;2023-04-03T05:22:32;102895.94;;;2.02;76.52
23016;BME280;11674;52.428;13.584;2023-04-03T05:27:42;102896.25;;;2.07;76.58
23016;BME280;11674;52.428;13.584;2023-04-03T05:32:59;102899.28;;;2.12;76.58
23016;BME280;11674;52.428;13.584;2023-04-03T05:38:13;102907.41;;;2.20;76.61
23016;BME280;11674;52.428;13.584;2023-04-03T05:43:20;102913.16;;;2.33;76.56
23016;BME280;11674;52.428;13.584;2023-04-03T05:48:27;102912.03;;;2.42;76.55
23016;BME280;11674;52.428;13.584;2023-04-03T05:53:35;102917.91;;;2.54;76.60
23016;BME280;11674;52.428;13.584;2023-04-03T05:58:43;102920.22;;;2.65;76.70
23016;BME280;11674;52.428;13.584;2023-04-03T06:03:50;102921.47;;;2.77;76.78
23016;BME280;11674;52.428;13.584;2023-04-03T06:08:57;102930.56;;;2.92;76.79
23016;BME280;11674;52.428;13.584;2023-04-03T06:14:04;102931.81;;;3.04;76.86
23016;BME280;11674;52.428;13.584;2023-04-03T06:19:11;102927.56;;;3.16;76.82
23016;BME280;11674;52.428;13.584;2023-04-03T06:24:24;102928.16;;;3.26;76.73
23016;BME280;11674;52.428;13.584;2023-04-03T06:29:31;102935.91;;;3.37;76.67
23016;BME280;11674;52.428;13.584;2023-04-03T06:34:45;102936.25;;;3.48;76.37
23016;BME280;11674;52.428;13.584;2023-04-03T06:39:52;102932.81;;;3.61;76.12
23016;BME280;11674;52.428;13.584;2023-04-03T06:44:59;102940.56;;;3.72;75.88
23016;BME280;11674;52.428;13.584;2023-04-03T06:50:06;102953.34;;;3.79;75.72
23016;BME280;11674;52.428;13.584;2023-04-03T06:55:13;102957.94;;;3.93;75.47
23016;BME280;11674;52.428;13.584;2023-04-03T07:00:20;102948.16;;;4.05;75.15
23016;BME280;11674;52.428;13.584;2023-04-03T07:05:27;102962.44;;;4.15;74.85
23016;BME280;11674;52.428;13.584;2023-04-03T07:10:34;102968.72;;;4.30;74.47
23016;BME280;11674;52.428;13.584;2023-04-03T07:15:41;102973.81;;;4.33;74.28
23016;BME280;11674;52.428;13.584;2023-04-03T07:20:48;102979.97;;;4.35;74.29
23016;BME280;11674;52.428;13.584;2023-04-03T07:25:55;102977.53;;;4.47;74.55
23016;BME280;11674;52.428;13.584;2023-04-03T07:31:07;102977.69;;;4.60;74.21
23016;BME280;11674;52.428;13.584;2023-04-03T07:36:17;102978.47;;;4.75;74.30
23016;BME280;11674;52.428;13.584;2023-04-03T07:41:24;102983.28;;;4.94;74.45
23016;BME280;11674;52.428;13.584;2023-04-03T07:46:31;102985.09;;;5.08;74.55
23016;BME280;11674;52.428;13.584;2023-04-03T07:51:38;102980.09;;;5.18;74.52
23016;BME280;11674;52.428;13.584;2023-04-03T07:56:45;102984.19;;;5.28;73.47
23016;BME280;11674;52.428;13.584;2023-04-03T08:01:52;102990.81;;;5.34;72.89
23016;BME280;11674;52.428;13.584;2023-04-03T08:06:59;102994.75;;;5.59;72.92
23016;BME280;11674;52.428;13.584;2023-04-03T08:12:06;102985.72;;;5.71;71.86
23016;BME280;11674;52.428;13.584;2023-04-03T08:17:13;102980.16;;;5.65;71.02
23016;BME280;11674;52.428;13.584;2023-04-03T08:22:20;102988.09;;;5.74;71.36
23016;BME280;11674;52.428;13.584;2023-04-03T08:27:27;102987.09;;;5.88;71.43
23016;BME280;11674;52.428;13.584;2023-04-03T08:32:34;102989.03;;;5.88;71.40
23016;BME280;11674;52.428;13.584;2023-04-03T08:37:41;102986.59;;;5.78;71.10
23016;BME280;11674;52.428;13.584;2023-04-03T08:48:19;102979.34;;;5.64;70.99
23016;BME280;11674;52.428;13.584;2023-04-03T08:53:30;102982.72;;;5.66;70.41
23016;BME280;11674;52.428;13.584;2023-04-03T08:59:00;102972.09;;;5.57;70.01
23016;BME280;11674;52.428;13.584;2023-04-03T09:04:15;102969.41;;;5.70;69.81
23016;BME280;11674;52.428;13.584;2023-04-03T09:09:35;102969.75;;;5.94;69.09
23016;BME280;11674;52.428;13.584;2023-04-03T09:15:31;102960.16;;;6.31;69.32
23016;BME280;11674;52.428;13.584;2023-04-03T09:25:36;102963.56;;;7.24;69.83
23016;BME280;11674;52.428;13.584;2023-04-03T09:30:44;102971.88;;;7.11;70.11
23016;BME280;11674;52.428;13.584;2023-04-03T09:35:51;102966.38;;;7.11;70.29
23016;BME280;11674;52.428;13.584;2023-04-03T09:41:07;102968.28;;;6.97;68.16
23016;BME280;11674;52.428;13.584;2023-04-03T09:46:34;102966.78;;;6.95;68.58
23016;BME280;11674;52.428;13.584;2023-04-03T09:51:41;102963.19;;;7.01;68.16
23016;BME280;11674;52.428;13.584;2023-04-03T09:56:51;102962.56;;;6.99;68.04
23016;BME280;11674;52.428;13.584;2023-04-03T10:12:35;102957.25;;;6.97;67.51
23016;BME280;11674;52.428;13.584;2023-04-03T10:17:57;102955.13;;;7.06;67.95
23016;BME280;11674;52.428;13.584;2023-04-03T10:29:05;102950.78;;;7.55;68.33
23016;BME280;11674;52.428;13.584;2023-04-03T10:34:21;102940.31;;;7.70;68.62
23016;BME280;11674;52.428;13.584;2023-04-03T10:39:57;102934.13;;;7.75;68.46
23016;BME280;11674;52.428;13.584;2023-04-03T10:45:26;102933.56;;;7.53;68.45
23016;BME280;11674;52.428;13.584;2023-04-03T11:01:22;102899.22;;;7.30;66.19
23016;BME280;11674;52.428;13.584;2023-04-03T11:06:48;102913.94;;;7.11;64.90
23016;BME280;11674;52.428;13.584;2023-04-03T11:12:11;102915.22;;;7.15;65.24
23016;BME280;11674;52.428;13.584;2023-04-03T11:22:35;102920.94;;;7.00;65.20
23016;BME280;11674;52.428;13.584;2023-04-03T11:28:00;102916.91;;;7.03;64.77
23016;BME280;11674;52.428;13.584;2023-04-03T11:33:24;102911.59;;;7.14;65.90
23016;BME280;11674;52.428;13.584;2023-04-03T11:38:38;102913.28;;;7.22;65.33
23016;BME280;11674;52.428;13.584;2023-04-03T11:44:05;102910.91;;;7.32;65.41
23016;BME280;11674;52.428;13.584;2023-04-03T11:49:51;102904.47;;;7.51;64.52
23016;BME280;11674;52.428;13.584;2023-04-03T11:54:58;102898.34;;;7.49;63.26
23016;BME280;11674;52.428;13.584;2023-04-03T12:26:47;102901.78;;;7.31;61.56
23016;BME280;11674;52.428;13.584;2023-04-03T12:31:58;102891.81;;;7.30;62.52
23016;BME280;11674;52.428;13.584;2023-04-03T12:47:54;102879.88;;;7.43;62.85
23016;BME280;11674;52.428;13.584;2023-04-03T12:53:05;102880.09;;;7.41;62.22
23016;BME280;11674;52.428;13.584;2023-04-03T12:58:33;102871.59;;;7.36;61.87
23016;BME280;11674;52.428;13.584;2023-04-03T13:03:43;102865.66;;;7.39;61.46
23016;BME280;11674;52.428;13.584;2023-04-03T13:08:55;102861.56;;;7.55;62.13
23016;BME280;11674;52.428;13.584;2023-04-03T13:14:05;102865.09;;;7.68;60.99
23016;BME280;11674;52.428;13.584;2023-04-03T13:19:17;102854.06;;;7.62;60.55
23016;BME280;11674;52.428;13.584;2023-04-03T13:24:25;102858.38;;;7.58;60.37
23016;BME280;11674;52.428;13.584;2023-04-03T13:29:35;102857.41;;;7.77;60.73
23016;BME280;11674;52.428;13.584;2023-04-03T13:34:43;102839.78;;;8.09;61.23
23016;BME280;11674;52.428;13.584;2023-04-03T13:45:21;102838.25;;;7.82;60.45
23016;BME280;11674;52.428;13.584;2023-04-03T13:50:28;102838.34;;;7.69;60.33
23016;BME280;11674;52.428;13.584;2023-04-03T13:55:39;102840.72;;;7.59;59.91
23016;BME280;11674;52.428;13.584;2023-04-03T14:01:10;102839.22;;;7.63;60.67
23016;BME280;11674;52.428;13.584;2023-04-03T14:06:17;102839.16;;;7.76;61.05
23016;BME280;11674;52.428;13.584;2023-04-03T14:11:28;102841.31;;;7.67;60.06
23016;BME280;11674;52.428;13.584;2023-04-03T14:16:38;102818.66;;;7.52;59.57
23016;BME280;11674;52.428;13.584;2023-04-03T14:21:46;102823.50;;;7.57;59.85
23016;BME280;11674;52.428;13.584;2023-04-03T14:26:54;102825.75;;;7.73;60.10
23016;BME280;11674;52.428;13.584;2023-04-03T14:32:01;102826.09;;;7.89;59.57
23016;BME280;11674;52.428;13.584;2023-04-03T14:37:14;102814.03;;;7.84;59.33
23016;BME280;11674;52.428;13.584;2023-04-03T14:42:25;102818.59;;;7.65;58.84
23016;BME280;11674;52.428;13.584;2023-04-03T14:47:39;102816.75;;;7.53;59.70
23016;BME280;11674;52.428;13.584;2023-04-03T14:52:49;102814.00;;;7.46;60.17
23016;BME280;11674;52.428;13.584;2023-04-03T14:57:56;102809.59;;;7.32;59.90
23016;BME280;11674;52.428;13.584;2023-04-03T15:03:03;102823.22;;;7.27;60.46
23016;BME280;11674;52.428;13.584;2023-04-03T15:08:21;102819.44;;;7.22;60.27
23016;BME280;11674;52.428;13.584;2023-04-03T15:13:29;102819.66;;;7.20;60.16
23016;BME280;11674;52.428;13.584;2023-04-03T15:18:37;102812.03;;;7.09;60.21
23016;BME280;11674;52.428;13.584;2023-04-03T15:23:45;102819.72;;;7.01;60.39
23016;BME280;11674;52.428;13.584;2023-04-03T15:28:52;102814.38;;;7.06;60.87
23016;BME280;11674;52.428;13.584;2023-04-03T15:33:59;102812.25;;;7.14;61.21
23016;BME280;11674;52.428;13.584;2023-04-03T15:39:06;102806.09;;;7.12;61.15
23016;BME280;11674;52.428;13.584;2023-04-03T15:44:13;102795.75;;;7.01;61.22
23016;BME280;11674;52.428;13.584;2023-04-03T15:49:21;102809.28;;;7.03;61.17
23016;BME280;11674;52.428;13.584;2023-04-03T15:54:28;102811.63;;;7.12;61.66
23016;BME280;11674;52.428;13.584;2023-04-03T15:59:35;102816.28;;;7.05;61.50
23016;BME280;11674;52.428;13.584;2023-04-03T16:04:42;102808.00;;;7.05;62.22
23016;BME280;11674;52.428;13.584;2023-04-03T16:09:49;102811.34;;;7.27;62.78
23016;BME280;11674;52.428;13.584;2023-04-03T16:14:56;102799.50;;;7.57;62.65
23016;BME280;11674;52.428;13.584;2023-04-03T16:20:08;102800.50;;;7.69;62.25
23016;BME280;11674;52.428;13.584;2023-04-03T16:25:17;102790.50;;;7.75;62.83
23016;BME280;11674;52.428;13.584;2023-04-03T16:30:24;102796.44;;;7.72;62.75
23016;BME280;11674;52.428;13.584;2023-04-03T16:35:31;102806.78;;;7.52;62.28
23016;BME280;11674;52.428;13.584;2023-04-03T16:40:38;102806.91;;;7.26;61.58
23016;BME280;11674;52.428;13.584;2023-04-03T16:45:45;102810.53;;;7.13;61.61
23016;BME280;11674;52.428;13.584;2023-04-03T16:50:55;102806.56;;;6.96;61.42
23016;BME280;11674;52.428;13.584;2023-04-03T16:56:02;102824.63;;;6.86;61.28
23016;BME280;11674;52.428;13.584;2023-04-03T17:01:14;102814.66;;;6.78;61.51
23016;BME280;11674;52.428;13.584;2023-04-03T17:06:23;102802.81;;;6.71;61.97
23016;BME280;11674;52.428;13.584;2023-04-03T17:11:30;102807.91;;;6.68;62.33
23016;BME280;11674;52.428;13.584;2023-04-03T17:16:38;102802.38;;;6.68;62.25
23016;BME280;11674;52.428;13.584;2023-04-03T17:21:45;102797.94;;;6.60;62.02
23016;BME280;11674;52.428;13.584;2023-04-03T17:26:52;102803.66;;;6.52;61.95
23016;BME280;11674;52.428;13.584;2023-04-03T17:31:59;102811.09;;;6.52;62.12
23016;BME280;11674;52.428;13.584;2023-04-03T17:37:06;102814.47;;;6.54;62.49
23016;BME280;11674;52.428;13.584;2023-04-03T17:42:13;102816.19;;;6.48;62.40
23016;BME280;11674;52.428;13.584;2023-04-03T17:47:20;102814.72;;;6.46;62.12
23016;BME280;11674;52.428;13.584;2023-04-03T17:52:27;102819.38;;;6.39;62.07
23016;BME280;11674;52.428;13.584;2023-04-03T17:57:34;102811.31;;;6.31;61.58
23016;BME280;11674;52.428;13.584;2023-04-03T18:02:41;102822.13;;;6.26;61.95
23016;BME280;11674;52.428;13.584;2023-04-03T18:07:48;102821.28;;;6.25;62.37
23016;BME280;11674;52.428;13.584;2023-04-03T18:12:55;102830.19;;;6.21;62.44
23016;BME280;11674;52.428;13.584;2023-04-03T18:18:02;102832.31;;;6.19;63.10
23016;BME280;11674;52.428;13.584;2023-04-03T18:23:09;102838.00;;;6.11;62.78
23016;BME280;11674;52.428;13.584;2023-04-03T18:28:16;102837.56;;;6.01;62.70
23016;BME280;11674;52.428;13.584;2023-04-03T18:33:23;102834.59;;;5.96;62.83
23016;BME280;11674;52.428;13.584;2023-04-03T18:38:30;102825.91;;;5.92;62.83
23016;BME280;11674;52.428;13.584;2023-04-03T18:43:37;102838.41;;;5.82;62.94
23016;BME280;11674;52.428;13.584;2023-04-03T18:48:44;102843.63;;;5.77;62.99
23016;BME280;11674;52.428;13.584;2023-04-03T18:53:51;102834.94;;;5.73;63.10
23016;BME280;11674;52.428;13.584;2023-04-03T18:58:58;102844.69;;;5.69;63.29
23016;BME280;11674;52.428;13.584;2023-04-03T19:04:06;102839.16;;;5.63;63.07
23016;BME280;11674;52.428;13.584;2023-04-03T19:09:13;102835.97;;;5.59;63.04
23016;BME280;11674;52.428;13.584;2023-04-03T19:14:20;102834.91;;;5.60;62.91
23016;BME280;11674;52.428;13.584;2023-04-03T19:19:27;102836.34;;;5.56;62.97
23016;BME280;11674;52.428;13.584;2023-04-03T19:24:34;102831.91;;;5.55;62.91
23016;BME280;11674;52.428;13.584;2023-04-03T19:29:41;102834.28;;;5.58;63.44
23016;BME280;11674;52.428;13.584;2023-04-03T19:34:48;102833.00;;;5.61;63.73
23016;BME280;11674;52.428;13.584;2023-04-03T19:39:55;102827.69;;;5.59;63.94
23016;BME280;11674;52.428;13.584;2023-04-03T19:45:02;102834.66;;;5.55;63.88
23016;BME280;11674;52.428;13.584;2023-04-03T19:50:09;102831.31;;;5.60;64.12
23016;BME280;11674;52.428;13.584;2023-04-03T19:55:17;102833.41;;;5.58;64.18
23016;BME280;11674;52.428;13.584;2023-04-03T20:00:24;102831.72;;;5.57;64.43
23016;BME280;11674;52.428;13.584;2023-04-03T20:05:31;102820.50;;;5.58;64.81
23016;BME280;11674;52.428;13.584;2023-04-03T20:10:38;102837.00;;;5.52;64.54
23016;BME280;11674;52.428;13.584;2023-04-03T20:15:45;102838.22;;;5.43;64.60
23016;BME280;11674;52.428;13.584;2023-04-03T20:20:56;102839.03;;;5.37;64.62
23016;BME280;11674;52.428;13.584;2023-04-03T20:26:06;102835.00;;;5.26;64.50
23016;BME280;11674;52.428;13.584;2023-04-03T20:31:13;102828.59;;;5.19;64.80
23016;BME280;11674;52.428;13.584;2023-04-03T20:36:20;102835.72;;;5.07;64.24
23016;BME280;11674;52.428;13.584;2023-04-03T20:41:27;102830.66;;;5.04;64.59
23016;BME280;11674;52.428;13.584;2023-04-03T20:46:34;102831.03;;;5.01;64.38
23016;BME280;11674;52.428;13.584;2023-04-03T20:51:41;102828.25;;;4.95;64.40
23016;BME280;11674;52.428;13.584;2023-04-03T20:56:48;102832.91;;;4.94;64.62
23016;BME280;11674;52.428;13.584;2023-04-03T21:01:55;102827.59;;;4.93;64.68
23016;BME280;11674;52.428;13.584;2023-04-03T21:23:54;102820.75;;;4.76;65.22
23016;BME280;11674;52.428;13.584;2023-04-03T21:29:01;102821.31;;;4.65;65.02
23016;BME280;11674;52.428;13.584;2023-04-03T21:34:08;102824.38;;;4.55;65.40
23016;BME280;11674;52.428;13.584;2023-04-03T21:39:15;102826.84;;;4.44;65.37
23016;BME280;11674;52.428;13.584;2023-04-03T21:44:22;102821.69;;;4.34;65.25
23016;BME280;11674;52.428;13.584;2023-04-03T21:49:29;102828.38;;;4.25;65.75
23016;BME280;11674;52.428;13.584;2023-04-03T21:54:36;102817.75;;;4.16;65.60
23016;BME280;11674;52.428;13.584;2023-04-03T21:59:43;102820.63;;;4.08;65.91
23016;BME280;11674;52.428;13.584;2023-04-03T22:04:50;102823.69;;;3.98;65.91
23016;BME280;11674;52.428;13.584;2023-04-03T22:09:57;102831.59;;;3.87;65.84
23016;BME280;11674;52.428;13.584;2023-04-03T22:15:05;102815.00;;;3.74;65.83
23016;BME280;11674;52.428;13.584;2023-04-03T22:20:12;102816.81;;;3.67;65.86
23016;BME280;11674;52.428;13.584;2023-04-03T22:25:19;102813.34;;;3.58;66.02
23016;BME280;11674;52.428;13.584;2023-04-03T22:30:26;102816.22;;;3.50;66.10
23016;BME280;11674;52.428;13.584;2023-04-03T22:35:33;102810.84;;;3.42;66.25
23016;BME280;11674;52.428;13.584;2023-04-03T22:40:41;102822.50;;;3.30;66.44
23016;BME280;11674;52.428;13.584;2023-04-03T22:45:48;102819.69;;;3.23;66.47
23016;BME280;11674;52.428;13.584;2023-04-03T22:50:55;102824.22;;;3.16;66.67
23016;BME280;11674;52.428;13.584;2023-04-03T22:56:05;102822.44;;;3.09;66.59
23016;BME280;11674;52.428;13.584;2023-04-03T23:01:13;102827.00;;;3.02;66.67
23016;BME280;11674;52.428;13.584;2023-04-03T23:06:20;102833.88;;;2.98;66.73
23016;BME280;11674;52.428;13.584;2023-04-03T23:11:27;102824.72;;;2.91;66.82
23016;BME280;11674;52.428;13.584;2023-04-03T23:16:34;102833.91;;;2.83;66.98
23016;BME280;11674;52.428;13.584;2023-04-03T23:21:41;102834.66;;;2.77;66.98
23016;BME280;11674;52.428;13.584;2023-04-03T23:26:48;102827.38;;;2.70;67.02
23016;BME280;11674;52.428;13.584;2023-04-03T23:31:55;102841.63;;;2.65;66.90
23016;BME280;11674;52.428;13.584;2023-04-03T23:37:02;102832.28;;;2.60;67.22
23016;BME280;11674;52.428;13.584;2023-04-03T23:42:09;102832.44;;;2.58;67.25
23016;BME280;11674;52.428;13.584;2023-04-03T23:47:16;102831.50;;;2.51;67.31
23016;BME280;11674;52.428;13.584;2023-04-03T23:52:23;102830.38;;;2.46;67.14
23016;BME280;11674;52.428;13.584;2023-04-03T23:57:30;102825.66;;;2.40;67.26
